Time;durP1;ratioP1;P1;durP2;ratioP2;P2;SDS_P1;SDS_P2;PMS_P1;PMS_P2;Temp;Humidity;BMP_temperature;BMP_pressure;BME280_temperature;BME280_humidity;BME280_pressure;Samples;Min_cycle;Max_cycle;Signal;HPM_P1;HPM_P2
2021/08/09 00:01:12;;;;;;;9.38;2.08;;;16.60;99.90;;;;;;4973739;28;20169;-81
2021/08/09 00:03:37;;;;;;;6.70;1.67;;;16.40;99.90;;;;;;4972360;28;20176;-81
2021/08/09 00:06:03;;;;;;;7.20;1.58;;;16.40;99.90;;;;;;4973443;28;20201;-81
2021/08/09 00:08:29;;;;;;;12.30;1.70;;;16.30;99.90;;;;;;4973569;28;20204;-81
2021/08/09 00:10:54;;;;;;;9.13;1.80;;;16.50;99.90;;;;;;4972468;28;20201;-82
2021/08/09 00:13:20;;;;;;;10.85;2.10;;;16.60;99.90;;;;;;4972259;28;20616;-82
2021/08/09 00:15:45;;;;;;;7.97;1.70;;;16.70;99.90;;;;;;4973170;28;20605;-81
2021/08/09 00:18:11;;;;;;;8.63;1.83;;;16.70;99.90;;;;;;4973144;28;20201;-81
2021/08/09 00:20:37;;;;;;;11.20;2.00;;;16.80;99.90;;;;;;4972360;28;20638;-81
2021/08/09 00:23:02;;;;;;;6.80;1.80;;;16.40;99.90;;;;;;4972505;28;20182;-81
2021/08/09 00:25:28;;;;;;;5.82;1.83;;;16.50;99.90;;;;;;4972172;28;20192;-81
2021/08/09 00:27:54;;;;;;;5.75;1.83;;;16.50;99.90;;;;;;4973637;28;20174;-81
2021/08/09 00:30:19;;;;;;;5.55;1.80;;;16.60;99.90;;;;;;4973472;28;20173;-81
2021/08/09 00:32:45;;;;;;;4.13;1.65;;;16.70;99.90;;;;;;4973301;28;20174;-81
2021/08/09 00:35:11;;;;;;;6.72;1.63;;;16.80;99.90;;;;;;4973410;28;20166;-82
2021/08/09 00:37:37;;;;;;;2.83;1.60;;;16.70;99.90;;;;;;4973079;28;20557;-82
2021/08/09 00:40:04;;;;;;;6.15;1.90;;;16.80;99.90;;;;;;4973327;28;20182;-82
2021/08/09 00:42:29;;;;;;;4.70;2.17;;;16.90;99.90;;;;;;4973392;28;20162;-82
2021/08/09 00:44:55;;;;;;;6.05;1.85;;;17.00;99.90;;;;;;4973254;28;20627;-81
2021/08/09 00:47:20;;;;;;;7.40;2.03;;;16.90;99.90;;;;;;4971929;28;20198;-81
2021/08/09 00:49:46;;;;;;;7.50;2.00;;;17.00;99.90;;;;;;4972801;28;20205;-81
2021/08/09 00:52:11;;;;;;;7.32;1.80;;;17.00;99.90;;;;;;4973127;28;20166;-81
2021/08/09 00:54:38;;;;;;;5.88;2.13;;;17.10;99.90;;;;;;4973217;28;20178;-81
2021/08/09 00:57:04;;;;;;;5.05;1.80;;;17.20;99.90;;;;;;4973128;28;20186;-81
2021/08/09 00:59:30;;;;;;;9.73;2.17;;;17.20;99.90;;;;;;4973341;28;20209;-82
2021/08/09 01:01:56;;;;;;;5.47;1.88;;;16.90;99.90;;;;;;4974470;28;20166;-81
2021/08/09 01:04:22;;;;;;;4.43;1.70;;;17.00;99.90;;;;;;4976688;28;20180;-81
2021/08/09 01:06:49;;;;;;;11.00;2.20;;;17.10;99.90;;;;;;4975438;28;20284;-82
2021/08/09 01:09:27;;;;;;;12.27;2.00;;;17.10;99.90;;;;;;4976950;28;20344;-81
2021/08/09 01:12:04;;;;;;;6.57;1.95;;;17.20;99.90;;;;;;4976657;28;20182;-81
2021/08/09 01:14:53;;;;;;;11.18;1.80;;;17.20;99.90;;;;;;4976639;28;20197;-82
2021/08/09 01:17:23;;;;;;;9.75;1.70;;;17.20;99.90;;;;;;4976540;28;20526;-82
2021/08/09 01:20:17;;;;;;;6.50;1.98;;;17.30;99.90;;;;;;4975268;28;20269;-81
2021/08/09 01:22:52;;;;;;;5.50;1.45;;;17.30;99.90;;;;;;4975204;28;20186;-82
2021/08/09 01:25:33;;;;;;;10.30;1.88;;;17.00;99.90;;;;;;4975090;28;20180;-81
2021/08/09 01:28:01;;;;;;;5.13;1.70;;;17.00;99.90;;;;;;4975158;28;20252;-82
2021/08/09 01:30:27;;;;;;;11.25;2.33;;;17.10;99.90;;;;;;4975092;28;20249;-82
2021/08/09 01:32:54;;;;;;;7.47;1.60;;;17.10;99.90;;;;;;4975776;28;20162;-81
2021/08/09 01:35:24;;;;;;;8.77;2.10;;;17.30;99.90;;;;;;4976730;28;20193;-81
2021/08/09 01:37:54;;;;;;;10.63;2.20;;;17.20;99.90;;;;;;4975942;28;20209;-81
2021/08/09 01:40:21;;;;;;;7.65;2.50;;;17.30;99.90;;;;;;4974860;28;20535;-82
2021/08/09 01:42:48;;;;;;;10.40;2.30;;;17.30;99.90;;;;;;4974740;28;20181;-82
2021/08/09 01:45:15;;;;;;;8.18;2.03;;;17.40;99.90;;;;;;4974716;28;20169;-81
2021/08/09 01:47:42;;;;;;;5.80;2.25;;;17.40;99.90;;;;;;4976491;28;20186;-81
2021/08/09 01:50:10;;;;;;;7.57;1.60;;;17.30;99.90;;;;;;4974678;28;20186;-81
2021/08/09 01:52:37;;;;;;;6.30;1.77;;;17.30;99.90;;;;;;4975844;28;20178;-82
2021/08/09 01:55:03;;;;;;;5.95;1.38;;;17.40;99.90;;;;;;4974978;28;20261;-82
2021/08/09 01:57:29;;;;;;;9.57;2.47;;;17.40;99.90;;;;;;4975724;28;20217;-81
2021/08/09 01:59:55;;;;;;;5.47;1.52;;;17.30;99.90;;;;;;4975872;28;20201;-82
2021/08/09 02:02:33;;;;;;;7.32;1.75;;;17.30;99.90;;;;;;4975948;28;20572;-82
2021/08/09 02:05:13;;;;;;;6.57;2.05;;;17.40;99.90;;;;;;4975736;28;20672;-81
2021/08/09 02:07:41;;;;;;;5.72;1.95;;;17.50;99.90;;;;;;4974604;28;20201;-82
2021/08/09 02:10:11;;;;;;;6.05;1.92;;;17.40;99.90;;;;;;4976059;28;20269;-82
2021/08/09 02:13:00;;;;;;;11.80;2.30;;;17.30;99.90;;;;;;4974239;28;20620;-81
2021/08/09 02:15:37;;;;;;;7.47;1.73;;;17.40;99.90;;;;;;4974136;28;20252;-82
2021/08/09 02:18:15;;;;;;;9.07;2.25;;;17.30;99.90;;;;;;4973244;28;20638;-81
2021/08/09 02:20:44;;;;;;;5.25;1.95;;;17.50;99.90;;;;;;4974726;28;20169;-82
2021/08/09 02:23:14;;;;;;;7.55;1.85;;;17.40;99.90;;;;;;4974715;28;20174;-82
2021/08/09 02:25:45;;;;;;;7.75;2.28;;;17.50;99.90;;;;;;4973969;28;20172;-82
2021/08/09 02:28:15;;;;;;;12.85;2.25;;;17.50;99.90;;;;;;4973268;28;20213;-82
2021/08/09 02:30:49;;;;;;;22.10;2.33;;;17.40;99.90;;;;;;4973048;28;20229;-81
2021/08/09 02:33:15;;;;;;;4.43;2.13;;;17.30;99.90;;;;;;4973158;28;20177;-82
2021/08/09 02:35:43;;;;;;;11.43;2.67;;;17.30;99.90;;;;;;4974304;28;20201;-82
2021/08/09 02:38:09;;;;;;;5.45;1.98;;;17.00;99.90;;;;;;4974074;28;20201;-81
2021/08/09 02:40:36;;;;;;;12.73;2.35;;;17.10;99.90;;;;;;4973877;28;20166;-81
2021/08/09 02:43:02;;;;;;;8.38;1.85;;;17.10;99.90;;;;;;4974020;28;20162;-81
2021/08/09 02:45:28;;;;;;;9.52;2.30;;;17.20;99.90;;;;;;4973800;28;20173;-81
2021/08/09 02:47:55;;;;;;;6.10;1.98;;;17.10;99.90;;;;;;4972982;28;20252;-81
2021/08/09 02:50:20;;;;;;;8.63;2.63;;;17.00;99.90;;;;;;4974243;28;20220;-82
2021/08/09 02:52:47;;;;;;;13.82;2.15;;;16.90;99.90;;;;;;4972976;28;20200;-81
2021/08/09 02:55:15;;;;;;;8.30;1.50;;;16.90;99.90;;;;;;4974252;28;20170;-81
2021/08/09 02:57:42;;;;;;;3.65;1.90;;;16.90;99.90;;;;;;4972176;28;20205;-81
2021/08/09 03:00:09;;;;;;;3.83;1.90;;;16.90;99.90;;;;;;4972759;28;20264;-81
2021/08/09 03:02:37;;;;;;;9.00;2.20;;;16.90;99.90;;;;;;4972565;28;20166;-80
2021/08/09 03:05:07;;;;;;;2.22;1.90;;;16.60;99.90;;;;;;4974183;28;20641;-82
2021/08/09 03:07:36;;;;;;;4.72;2.22;;;16.70;99.90;;;;;;4973729;28;20182;-82
2021/08/09 03:10:05;;;;;;;4.88;1.63;;;16.70;99.90;;;;;;4973908;28;20646;-81
2021/08/09 03:12:31;;;;;;;3.60;2.00;;;16.70;99.90;;;;;;4973813;28;20174;-81
2021/08/09 03:14:57;;;;;;;2.75;1.75;;;16.80;99.90;;;;;;4935261;28;1114744;-82
2021/08/09 03:17:22;;;;;;;6.68;2.00;;;16.60;99.90;;;;;;4974129;28;20609;-82
2021/08/09 03:19:48;;;;;;;10.60;2.03;;;16.60;99.90;;;;;;4974156;28;20180;-81
2021/08/09 03:22:14;;;;;;;3.47;1.83;;;16.70;99.90;;;;;;4974094;28;20193;-81
2021/08/09 03:24:39;;;;;;;3.45;1.80;;;16.80;99.90;;;;;;4974035;28;20622;-81
2021/08/09 03:27:05;;;;;;;9.02;1.85;;;16.70;99.90;;;;;;4974141;28;20256;-82
2021/08/09 03:29:31;;;;;;;7.00;2.28;;;16.80;99.90;;;;;;4973000;28;20174;-81
2021/08/09 03:31:57;;;;;;;5.00;2.28;;;16.90;99.90;;;;;;4972996;28;20170;-81
2021/08/09 03:34:23;;;;;;;6.53;2.10;;;17.00;99.90;;;;;;4972987;28;20700;-82
2021/08/09 03:36:51;;;;;;;4.07;1.50;;;16.90;99.90;;;;;;4973146;28;20209;-81
2021/08/09 03:39:17;;;;;;;10.90;2.40;;;17.00;99.90;;;;;;4972864;28;20742;-82
2021/08/09 03:41:43;;;;;;;5.03;1.90;;;17.30;99.90;;;;;;4974275;28;20166;-82
2021/08/09 03:44:09;;;;;;;6.15;2.15;;;17.10;99.90;;;;;;4973981;28;20197;-82
2021/08/09 03:46:35;;;;;;;4.20;2.15;;;17.10;99.90;;;;;;4972717;28;20689;-82
2021/08/09 03:49:04;;;;;;;2.30;1.83;;;17.10;99.90;;;;;;4972582;28;20170;-82
2021/08/09 03:51:31;;;;;;;6.05;2.13;;;17.30;99.90;;;;;;4973880;28;20517;-82
2021/08/09 03:53:56;;;;;;;3.80;1.73;;;17.10;99.90;;;;;;4973763;28;20162;-82
2021/08/09 03:56:22;;;;;;;1.83;1.42;;;16.80;99.90;;;;;;4972522;28;20208;-82
2021/08/09 03:58:48;;;;;;;3.17;1.75;;;16.80;99.90;;;;;;4973667;28;20699;-82
2021/08/09 04:01:13;;;;;;;2.42;2.22;;;16.80;99.90;;;;;;4973908;28;20186;-81
2021/08/09 04:03:39;;;;;;;2.63;1.63;;;16.90;99.90;;;;;;4972507;28;20174;-82
2021/08/09 04:06:05;;;;;;;2.65;1.83;;;17.10;99.90;;;;;;4973604;28;20190;-81
2021/08/09 04:08:30;;;;;;;6.53;2.00;;;17.10;99.90;;;;;;4973964;28;20166;-82
2021/08/09 04:10:56;;;;;;;2.10;1.75;;;17.00;99.90;;;;;;4972598;28;20194;-82
2021/08/09 04:13:22;;;;;;;2.55;1.77;;;17.10;99.90;;;;;;4972861;28;20165;-82
2021/08/09 04:15:48;;;;;;;3.58;1.83;;;17.10;99.90;;;;;;4973698;28;20263;-81
2021/08/09 04:18:14;;;;;;;3.13;1.80;;;16.80;99.90;;;;;;4973330;28;20209;-81
2021/08/09 04:20:40;;;;;;;8.43;2.03;;;16.90;99.90;;;;;;4973694;28;20201;-81
2021/08/09 04:23:06;;;;;;;11.88;2.03;;;16.90;99.90;;;;;;4973909;28;20170;-81
2021/08/09 04:25:31;;;;;;;4.60;2.00;;;17.10;99.90;;;;;;4974075;28;20166;-81
2021/08/09 04:27:57;;;;;;;3.20;1.85;;;17.10;99.90;;;;;;4972098;28;20257;-81
2021/08/09 04:30:22;;;;;;;2.90;1.92;;;16.90;99.90;;;;;;4973526;28;20170;-81
2021/08/09 04:32:48;;;;;;;3.55;2.28;;;16.90;99.90;;;;;;4973157;28;20169;-81
2021/08/09 04:35:14;;;;;;;8.60;1.98;;;17.10;99.90;;;;;;4972134;28;20178;-81
2021/08/09 04:37:41;;;;;;;7.20;1.67;;;17.40;99.90;;;;;;4975655;28;20194;-82
2021/08/09 04:40:07;;;;;;;7.90;1.80;;;17.30;99.90;;;;;;4975864;28;20185;-81
2021/08/09 04:42:33;;;;;;;3.40;1.50;;;17.20;99.90;;;;;;4975748;28;20990;-79
2021/08/09 04:44:59;;;;;;;3.22;1.60;;;17.00;99.90;;;;;;4977311;28;20174;-79
2021/08/09 04:47:26;;;;;;;11.50;1.75;;;17.20;99.90;;;;;;4977404;28;20185;-80
2021/08/09 04:49:52;;;;;;;2.97;1.30;;;17.00;99.90;;;;;;4976918;28;20237;-81
2021/08/09 04:52:17;;;;;;;4.07;1.65;;;16.80;99.90;;;;;;4975829;28;20174;-81
2021/08/09 04:54:44;;;;;;;3.17;1.85;;;16.90;99.90;;;;;;4976991;28;20265;-80
2021/08/09 04:57:09;;;;;;;6.18;1.90;;;16.90;99.90;;;;;;4976987;28;20221;-80
2021/08/09 04:59:35;;;;;;;3.90;1.80;;;16.90;99.90;;;;;;4975776;28;20244;-79
2021/08/09 05:02:01;;;;;;;2.55;1.50;;;16.90;99.90;;;;;;4975500;28;20162;-81
2021/08/09 05:04:26;;;;;;;3.67;1.70;;;16.90;99.90;;;;;;4976335;28;20225;-80
2021/08/09 05:06:52;;;;;;;10.85;1.83;;;17.00;99.90;;;;;;4976351;28;20713;-80
2021/08/09 05:09:18;;;;;;;7.70;2.28;;;16.90;99.90;;;;;;4976449;28;20533;-80
2021/08/09 05:11:43;;;;;;;5.10;1.95;;;17.00;99.90;;;;;;4976534;28;20174;-80
2021/08/09 05:14:09;;;;;;;12.70;2.25;;;17.10;99.90;;;;;;4974832;28;20173;-80
2021/08/09 05:16:37;;;;;;;5.63;2.40;;;17.20;99.90;;;;;;4974683;28;20297;-81
2021/08/09 05:19:03;;;;;;;3.42;1.95;;;17.30;99.90;;;;;;4974869;28;20205;-81
2021/08/09 05:21:31;;;;;;;3.83;1.83;;;17.20;99.90;;;;;;4975267;28;20177;-81
2021/08/09 05:23:58;;;;;;;7.20;1.92;;;17.20;99.90;;;;;;4976131;28;20174;-81
2021/08/09 05:26:24;;;;;;;3.42;1.70;;;17.00;99.90;;;;;;4975027;28;20194;-80
2021/08/09 05:28:49;;;;;;;2.45;1.70;;;16.90;99.90;;;;;;4976653;28;20176;-81
2021/08/09 05:31:15;;;;;;;3.50;1.50;;;16.90;99.90;;;;;;4976495;28;20181;-80
2021/08/09 05:33:42;;;;;;;3.13;1.45;;;17.00;99.90;;;;;;4976339;28;20248;-80
2021/08/09 05:36:07;;;;;;;10.98;1.75;;;17.00;99.90;;;;;;4975084;28;20186;-79
2021/08/09 05:38:33;;;;;;;2.97;1.75;;;17.10;99.90;;;;;;4976271;28;20380;-80
2021/08/09 05:41:00;;;;;;;3.10;1.55;;;17.20;99.90;;;;;;4974467;28;20177;-81
2021/08/09 05:43:26;;;;;;;2.17;1.33;;;17.10;99.90;;;;;;4975835;28;20174;-81
2021/08/09 05:45:52;;;;;;;2.28;1.58;;;17.30;99.90;;;;;;4974034;28;20190;-80
2021/08/09 05:48:17;;;;;;;9.43;1.80;;;17.40;99.90;;;;;;4974745;28;20646;-80
2021/08/09 05:50:43;;;;;;;11.38;2.10;;;17.60;99.90;;;;;;4974974;28;20162;-79
2021/08/09 05:53:09;;;;;;;2.15;1.42;;;17.80;99.90;;;;;;4974441;28;20284;-79
2021/08/09 05:55:34;;;;;;;1.70;1.50;;;17.80;99.90;;;;;;4975568;28;20726;-78
2021/08/09 05:58:00;;;;;;;1.80;1.50;;;17.70;99.90;;;;;;4975882;28;20281;-78
2021/08/09 06:00:26;;;;;;;2.20;1.50;;;17.70;99.90;;;;;;4975643;28;20540;-80
2021/08/09 06:02:51;;;;;;;4.45;1.58;;;17.80;99.90;;;;;;4974544;28;20181;-80
2021/08/09 06:05:17;;;;;;;3.15;1.70;;;18.10;99.90;;;;;;4973113;28;20184;-80
2021/08/09 06:07:43;;;;;;;3.15;1.50;;;18.20;99.90;;;;;;4974296;28;20190;-80
2021/08/09 06:10:09;;;;;;;2.53;1.30;;;18.10;99.90;;;;;;4973239;28;20177;-79
2021/08/09 06:12:36;;;;;;;4.22;1.92;;;18.30;99.90;;;;;;4974255;28;20178;-80
2021/08/09 06:15:06;;;;;;;2.70;1.70;;;18.30;99.90;;;;;;4974551;28;20608;-81
2021/08/09 06:17:34;;;;;;;4.38;2.28;;;18.30;99.90;;;;;;4974489;28;20205;-82
2021/08/09 06:19:59;;;;;;;6.47;1.70;;;18.00;99.90;;;;;;4975422;28;20654;-81
2021/08/09 06:22:25;;;;;;;8.93;1.88;;;18.00;99.90;;;;;;4975450;28;20174;-80
2021/08/09 06:24:51;;;;;;;9.93;2.10;;;18.00;99.90;;;;;;4974179;28;20178;-81
2021/08/09 06:27:16;;;;;;;4.20;1.63;;;17.90;99.90;;;;;;4974208;28;20194;-82
2021/08/09 06:29:42;;;;;;;11.18;2.85;;;17.90;99.90;;;;;;4974157;28;20201;-81
2021/08/09 06:32:08;;;;;;;7.55;1.60;;;18.00;99.90;;;;;;4974229;28;20197;-81
2021/08/09 06:34:33;;;;;;;3.28;1.42;;;18.20;99.90;;;;;;4975346;28;20197;-81
2021/08/09 06:36:59;;;;;;;6.00;1.58;;;18.30;99.90;;;;;;4973980;28;20197;-81
2021/08/09 06:39:25;;;;;;;3.97;1.42;;;18.30;99.90;;;;;;4976054;28;20221;-81
2021/08/09 06:41:50;;;;;;;4.88;1.60;;;18.30;99.90;;;;;;4974298;28;20217;-82
2021/08/09 06:44:16;;;;;;;1.25;1.02;;;18.30;99.90;;;;;;4975648;28;20170;-81
2021/08/09 06:46:42;;;;;;;6.00;1.70;;;18.40;99.90;;;;;;4975505;28;20193;-81
2021/08/09 06:49:08;;;;;;;10.77;2.03;;;18.50;99.90;;;;;;4970368;28;20177;-84
2021/08/09 06:51:34;;;;;;;9.07;1.38;;;18.60;99.90;;;;;;4973409;28;20288;-82
2021/08/09 06:53:59;;;;;;;3.75;1.30;;;18.70;99.90;;;;;;4973983;28;20253;-81
2021/08/09 06:56:25;;;;;;;2.17;1.00;;;18.60;99.90;;;;;;4974678;28;20189;-81
2021/08/09 06:58:51;;;;;;;2.00;1.30;;;18.80;99.90;;;;;;4973769;28;20214;-82
2021/08/09 07:01:16;;;;;;;5.35;1.27;;;18.90;99.90;;;;;;4977123;28;20180;-81
2021/08/09 07:03:46;;;;;;;4.07;1.42;;;19.00;99.90;;;;;;4973073;28;20181;-83
2021/08/09 07:06:22;;;;;;;4.57;1.48;;;18.90;99.90;;;;;;4973398;28;20197;-86
2021/08/09 07:08:53;;;;;;;2.80;1.35;;;18.80;99.90;;;;;;4997456;28;20187;-83
2021/08/09 07:11:19;;;;;;;2.53;1.55;;;18.90;99.90;;;;;;4990584;28;20169;-81
2021/08/09 07:13:46;;;;;;;3.67;1.70;;;19.00;99.90;;;;;;4992804;28;20168;-82
2021/08/09 07:16:11;;;;;;;3.55;1.30;;;18.80;99.90;;;;;;4997312;28;20263;-79
2021/08/09 07:18:37;;;;;;;4.75;2.00;;;18.90;99.90;;;;;;4993375;28;20236;-84
2021/08/09 07:21:03;;;;;;;2.17;1.08;;;19.30;99.90;;;;;;4978238;28;20181;-84
2021/08/09 07:23:29;;;;;;;3.90;1.25;;;19.30;99.90;;;;;;4974440;28;20597;-89
2021/08/09 07:25:55;;;;;;;6.88;1.90;;;19.10;99.90;;;;;;4974122;28;20182;-80
2021/08/09 07:28:21;;;;;;;1.42;1.08;;;19.30;99.90;;;;;;4974218;28;20189;-82
2021/08/09 07:30:46;;;;;;;3.08;1.48;;;19.20;99.90;;;;;;4975096;28;20176;-84
2021/08/09 07:33:12;;;;;;;4.53;1.70;;;19.20;99.90;;;;;;4976477;28;20220;-86
2021/08/09 07:35:38;;;;;;;4.30;1.55;;;19.40;99.90;;;;;;4973285;28;20269;-85
2021/08/09 07:38:04;;;;;;;5.32;1.98;;;19.50;99.90;;;;;;4974994;28;20245;-79
2021/08/09 07:40:30;;;;;;;4.68;1.55;;;19.60;99.90;;;;;;4973202;28;20184;-80
2021/08/09 07:42:56;;;;;;;3.95;1.50;;;19.90;99.90;;;;;;4973326;28;20166;-82
2021/08/09 07:45:23;;;;;;;4.72;1.10;;;20.10;99.90;;;;;;4972472;28;20181;-79
2021/08/09 07:47:52;;;;;;;2.90;2.08;;;20.00;99.90;;;;;;4973804;28;20186;-79
2021/08/09 07:50:18;;;;;;;5.70;2.10;;;19.90;99.90;;;;;;4974756;28;20170;-79
2021/08/09 07:52:44;;;;;;;6.00;1.60;;;19.80;99.90;;;;;;4973233;28;20256;-84
2021/08/09 07:55:10;;;;;;;4.97;1.60;;;19.90;99.90;;;;;;4977394;28;20248;-80
2021/08/09 07:57:35;;;;;;;7.85;1.73;;;19.80;99.90;;;;;;4975283;28;20212;-79
2021/08/09 08:00:01;;;;;;;2.05;1.45;;;19.80;99.90;;;;;;4975110;28;20174;-77
2021/08/09 08:02:27;;;;;;;2.67;1.45;;;19.80;99.90;;;;;;4978944;28;20502;-87
2021/08/09 08:04:53;;;;;;;1.63;1.50;;;19.90;99.90;;;;;;4977927;28;20201;-83
2021/08/09 08:07:19;;;;;;;2.08;1.70;;;19.90;99.90;;;;;;4975325;28;20182;-81
2021/08/09 08:09:45;;;;;;;4.80;1.45;;;20.00;99.90;;;;;;4973830;28;20191;-81
2021/08/09 08:12:10;;;;;;;3.50;1.45;;;19.90;99.90;;;;;;4974895;28;20170;-85
2021/08/09 08:14:36;;;;;;;2.50;1.38;;;19.90;99.90;;;;;;4975025;28;20185;-81
2021/08/09 08:17:02;;;;;;;9.27;1.63;;;19.90;99.90;;;;;;4975164;28;20241;-80
2021/08/09 08:19:28;;;;;;;3.47;2.25;;;20.10;99.90;;;;;;4976441;28;20206;-82
2021/08/09 08:21:53;;;;;;;2.47;1.20;;;20.10;99.90;;;;;;4974967;28;20546;-86
2021/08/09 08:24:19;;;;;;;2.45;1.52;;;19.70;99.90;;;;;;4973690;28;20205;-84
2021/08/09 08:26:44;;;;;;;6.03;1.40;;;19.60;99.90;;;;;;4975153;28;20301;-88
2021/08/09 08:29:10;;;;;;;2.00;1.40;;;19.30;99.90;;;;;;4977346;28;20170;-94
2021/08/09 08:31:36;;;;;;;6.00;1.27;;;19.20;99.90;;;;;;4981860;28;20174;-86
2021/08/09 08:34:01;;;;;;;9.57;1.30;;;19.50;99.90;;;;;;4982275;28;20252;-86
2021/08/09 08:36:27;;;;;;;2.45;1.35;;;19.50;99.90;;;;;;4981335;28;20225;-87
2021/08/09 08:38:53;;;;;;;4.55;1.88;;;19.80;99.90;;;;;;4980676;28;20236;-88
2021/08/09 08:41:18;;;;;;;3.00;1.70;;;19.80;99.90;;;;;;4964607;28;20178;-92
2021/08/09 08:43:44;;;;;;;4.30;2.45;;;20.00;99.90;;;;;;4979486;28;20600;-84
2021/08/09 08:46:15;;;;;;;2.95;1.60;;;20.30;99.90;;;;;;4987820;28;20543;-84
2021/08/09 08:48:41;;;;;;;6.70;1.67;;;20.40;99.90;;;;;;4987243;28;20176;-84
2021/08/09 08:51:07;;;;;;;2.22;1.40;;;20.30;99.90;;;;;;4986357;28;20201;-84
2021/08/09 08:53:35;;;;;;;6.13;1.60;;;20.30;99.90;;;;;;4987922;28;20639;-84
2021/08/09 08:56:07;;;;;;;5.05;1.65;;;20.40;99.90;;;;;;4970436;28;20190;-87
2021/08/09 08:58:33;;;;;;;4.95;1.33;;;20.50;99.90;;;;;;4986246;28;20268;-83
2021/08/09 09:00:59;;;;;;;4.10;1.67;;;20.70;99.90;;;;;;4985739;28;20167;-83
2021/08/09 09:03:28;;;;;;;6.28;2.22;;;20.70;99.90;;;;;;4985756;28;20174;-83
2021/08/09 09:06:01;;;;;;;5.95;1.42;;;20.60;99.90;;;;;;4985200;28;20260;-82
2021/08/09 09:08:41;;;;;;;8.80;2.25;;;20.40;99.90;;;;;;4983439;28;20206;-85
2021/08/09 09:11:22;;;;;;;6.72;1.00;;;20.00;99.90;;;;;;4984655;28;20166;-83
2021/08/09 09:13:56;;;;;;;4.25;2.25;;;20.00;99.90;;;;;;4976775;28;20173;-85
2021/08/09 09:16:22;;;;;;;7.38;1.80;;;20.50;99.90;;;;;;4977661;28;20209;-89
2021/08/09 09:18:53;;;;;;;6.07;1.40;;;20.80;99.90;;;;;;4976199;28;20205;-88
2021/08/09 09:21:41;;;;;;;8.10;1.23;;;21.30;99.90;;;;;;4976971;28;20177;-88
2021/08/09 09:24:19;;;;;;;6.45;1.50;;;22.00;99.90;;;;;;4980984;28;20265;-91
2021/08/09 09:26:51;;;;;;;4.65;1.48;;;22.00;99.90;;;;;;4979772;28;20296;-86
2021/08/09 09:29:18;;;;;;;3.22;1.58;;;21.70;99.90;;;;;;4980442;28;20654;-82
2021/08/09 09:31:45;;;;;;;7.20;2.00;;;21.40;99.90;;;;;;4986322;28;20177;-87
2021/08/09 09:34:14;;;;;;;1.67;1.42;;;21.20;99.90;;;;;;4995334;28;20166;-85
2021/08/09 09:37:06;;;;;;;2.22;1.20;;;21.00;99.90;;;;;;4995922;28;20221;-83
2021/08/09 09:39:40;;;;;;;6.95;4.13;;;20.70;99.90;;;;;;4976459;28;20224;-89
2021/08/09 09:42:15;;;;;;;1.17;1.00;;;20.50;99.90;;;;;;4980043;28;20181;-85
2021/08/09 09:44:42;;;;;;;5.00;1.60;;;20.80;99.90;;;;;;4980861;28;20268;-85
2021/08/09 09:47:23;;;;;;;9.80;2.05;;;21.00;99.90;;;;;;4979995;28;20190;-85
2021/08/09 09:49:56;;;;;;;4.18;1.08;;;21.50;99.90;;;;;;4981207;28;20174;-85
2021/08/09 09:52:32;;;;;;;26.67;8.23;;;21.90;99.90;;;;;;4977682;28;20180;-82
2021/08/09 09:54:59;;;;;;;3.30;1.67;;;21.80;99.90;;;;;;4978621;28;20510;-88
2021/08/09 09:57:28;;;;;;;6.93;2.95;;;22.10;99.90;;;;;;4979042;28;20241;-88
2021/08/09 09:59:57;;;;;;;2.90;1.45;;;21.90;99.90;;;;;;4979950;28;20202;-86
2021/08/09 10:02:23;;;;;;;3.97;1.50;;;21.90;99.90;;;;;;4977129;28;20174;-83
2021/08/09 10:04:51;;;;;;;4.18;1.45;;;22.00;99.90;;;;;;4977353;28;20166;-84
2021/08/09 10:07:19;;;;;;;2.83;0.98;;;22.40;99.90;;;;;;4978498;28;20353;-84
2021/08/09 10:09:48;;;;;;;2.47;1.05;;;22.50;99.90;;;;;;4977894;28;20196;-84
2021/08/09 10:12:18;;;;;;;3.72;1.35;;;22.60;99.90;;;;;;4978299;28;20527;-85
2021/08/09 10:14:45;;;;;;;5.43;1.52;;;22.50;99.90;;;;;;4975581;28;20162;-84
2021/08/09 10:17:23;;;;;;;2.33;1.40;;;22.40;99.90;;;;;;4977505;28;20209;-82
2021/08/09 10:19:55;;;;;;;2.92;0.98;;;22.30;99.90;;;;;;4982215;28;20242;-84
2021/08/09 10:22:23;;;;;;;4.38;1.20;;;22.10;99.90;;;;;;4979766;28;20170;-85
2021/08/09 10:24:51;;;;;;;2.15;0.93;;;21.90;99.90;;;;;;4976283;28;20170;-85
2021/08/09 10:27:37;;;;;;;1.63;1.02;;;22.30;99.90;;;;;;4976189;28;20202;-84
2021/08/09 10:30:04;;;;;;;4.70;1.02;;;22.30;99.90;;;;;;4975562;28;20216;-85
2021/08/09 10:33:07;;;;;;;2.63;1.10;;;22.20;99.90;;;;;;4978641;28;20547;-84
2021/08/09 10:35:33;;;;;;;3.05;0.90;;;22.10;99.90;;;;;;4975199;28;20185;-84
2021/08/09 10:38:34;;;;;;;1.50;1.25;;;22.30;99.90;;;;;;4976050;28;20206;-84
2021/08/09 10:41:09;;;;;;;12.43;1.38;;;21.90;99.90;;;;;;4982290;28;20170;-84
2021/08/09 10:44:07;;;;;;;6.43;0.90;;;21.60;99.90;;;;;;4989720;28;20178;-84
2021/08/09 10:46:45;;;;;;;5.57;1.27;;;21.50;99.90;;;;;;4986462;28;20201;-85
2021/08/09 10:49:39;;;;;;;2.17;0.98;;;21.50;99.90;;;;;;4995977;28;20177;-84
2021/08/09 10:52:06;;;;;;;2.45;1.20;;;21.50;99.90;;;;;;4991123;28;20181;-86
2021/08/09 10:54:37;;;;;;;3.90;1.25;;;21.70;99.90;;;;;;4993673;28;20192;-85
2021/08/09 10:57:05;;;;;;;3.80;0.90;;;21.80;99.90;;;;;;4995872;28;20225;-83
2021/08/09 10:59:40;;;;;;;5.47;1.67;;;21.90;99.90;;;;;;4992014;28;20237;-82
2021/08/09 11:02:34;;;;;;;1.30;1.17;;;22.10;99.90;;;;;;4985286;28;20173;-85
2021/08/09 11:05:15;;;;;;;4.00;1.50;;;22.30;99.90;;;;;;4980096;28;20178;-85
2021/08/09 11:07:43;;;;;;;8.55;2.40;;;22.60;99.90;;;;;;4979415;28;20678;-83
2021/08/09 11:10:09;;;;;;;1.33;1.00;;;22.60;99.90;;;;;;4981081;28;20190;-87
2021/08/09 11:13:00;;;;;;;3.53;1.25;;;22.60;99.90;;;;;;4976620;28;20186;-86
2021/08/09 11:15:27;;;;;;;1.70;1.15;;;22.90;99.90;;;;;;4978004;28;20204;-85
2021/08/09 11:17:58;;;;;;;2.95;1.38;;;23.10;99.90;;;;;;4980410;28;20201;-85
2021/08/09 11:20:33;;;;;;;2.47;1.58;;;23.00;99.90;;;;;;4994140;28;20282;-91
2021/08/09 11:23:03;;;;;;;2.15;1.38;;;23.00;99.90;;;;;;4992254;28;20149;-88
2021/08/09 11:25:46;;;;;;;2.17;1.63;;;23.00;99.90;;;;;;4988425;28;20170;-86
2021/08/09 11:28:15;;;;;;;2.90;1.25;;;23.20;99.90;;;;;;4992876;28;20159;-92
2021/08/09 11:30:45;;;;;;;2.42;1.17;;;23.60;99.90;;;;;;4993753;28;20169;-90
2021/08/09 11:33:36;;;;;;;2.38;0.95;;;23.60;99.90;;;;;;4994218;28;20205;-87
2021/08/09 11:36:12;;;;;;;4.97;1.10;;;23.40;99.90;;;;;;4991223;28;20202;-87
2021/08/09 11:38:52;;;;;;;3.85;1.00;;;23.20;99.90;;;;;;4989950;28;20216;-87
2021/08/09 11:41:23;;;;;;;5.88;1.30;;;23.00;99.90;;;;;;4991160;28;20162;-92
2021/08/09 11:44:04;;;;;;;1.85;1.02;;;23.00;99.90;;;;;;4992566;28;20165;-90
2021/08/09 11:46:30;;;;;;;1.27;1.13;;;22.90;99.90;;;;;;4976753;28;20197;-89
2021/08/09 11:48:55;;;;;;;1.20;0.90;;;23.00;99.90;;;;;;4989087;28;20158;-85
2021/08/09 11:51:21;;;;;;;3.83;1.10;;;23.00;99.90;;;;;;4980537;28;20618;-94
2021/08/09 11:53:51;;;;;;;5.50;1.55;;;23.20;99.90;;;;;;4975636;28;20606;-93
2021/08/09 11:56:24;;;;;;;3.25;1.20;;;23.30;99.90;;;;;;4974749;28;20190;-92
2021/08/09 11:58:51;;;;;;;2.33;1.20;;;23.50;99.90;;;;;;4975008;28;20202;-89
2021/08/09 12:01:36;;;;;;;3.92;1.10;;;23.20;99.90;;;;;;4975371;28;20252;-90
2021/08/09 12:04:40;;;;;;;3.55;1.27;;;23.40;99.90;;;;;;4993321;28;20165;-82
2021/08/09 12:07:26;;;;;;;12.23;2.45;;;23.20;99.90;;;;;;4994256;28;20217;-90
2021/08/09 12:10:00;;;;;;;3.20;1.30;;;23.40;99.90;;;;;;4995137;28;20178;-89
2021/08/09 12:12:53;;;;;;;1.45;1.10;;;22.90;99.90;;;;;;4996431;28;20169;-84
2021/08/09 12:15:39;;;;;;;3.05;1.58;;;22.90;99.90;;;;;;4994732;28;20185;-83
2021/08/09 12:18:11;;;;;;;2.58;1.13;;;23.00;99.90;;;;;;4995335;28;20214;-90
2021/08/09 12:20:54;;;;;;;6.28;1.63;;;22.80;99.90;;;;;;4997611;28;20205;-83
2021/08/09 12:23:52;;;;;;;3.85;1.60;;;22.60;99.90;;;;;;4995520;28;20173;-94
2021/08/09 12:26:29;;;;;;;2.75;1.58;;;22.70;99.90;;;;;;4993367;28;20266;-89
2021/08/09 12:29:16;;;;;;;12.48;1.88;;;22.70;99.90;;;;;;4977464;28;20177;-96
2021/08/09 12:32:14;;;;;;;5.05;1.52;;;22.40;99.90;;;;;;4990279;28;20831;-91
2021/08/09 12:34:43;;;;;;;2.67;1.15;;;22.20;99.90;;;;;;4983468;28;20185;-95
2021/08/09 12:37:12;;;;;;;2.88;1.70;;;22.10;99.90;;;;;;4978199;28;20194;-95
2021/08/09 12:39:38;;;;;;;3.78;1.70;;;21.80;99.90;;;;;;4976595;28;20210;-85
2021/08/09 12:42:17;;;;;;;3.67;2.15;;;21.90;99.90;;;;;;4973418;28;20170;-80
2021/08/09 12:44:43;;;;;;;3.67;1.55;;;21.40;99.90;;;;;;4972375;28;20178;-80
2021/08/09 12:47:08;;;;;;;2.80;1.70;;;21.40;99.90;;;;;;4973751;28;20260;-81
2021/08/09 12:49:34;;;;;;;4.20;1.80;;;21.20;99.90;;;;;;4971989;28;20205;-81
2021/08/09 12:52:00;;;;;;;4.53;1.60;;;21.20;99.90;;;;;;4973285;28;20526;-80
2021/08/09 12:54:25;;;;;;;6.57;2.00;;;21.00;99.90;;;;;;4971990;28;20161;-82
2021/08/09 12:56:51;;;;;;;6.70;2.58;;;20.10;99.90;;;;;;4972393;28;20356;-81